Time;durP1;ratioP1;P1;durP2;ratioP2;P2;SDS_P1;SDS_P2;PMS_P1;PMS_P2;Temp;Humidity;BMP_temperature;BMP_pressure;BME280_temperature;BME280_humidity;BME280_pressure;Samples;Min_cycle;Max_cycle;Signal;HPM_P1;HPM_P2
2022/12/01 00:00:43;;;;;;;7.50;5.88;;;21.90;54.70;;;;;;5051379;28;20040;-68
2022/12/01 00:03:09;;;;;;;8.45;5.43;;;21.70;54.60;;;;;;5051390;28;20036;-68
2022/12/01 00:05:35;;;;;;;7.68;5.90;;;21.70;54.70;;;;;;5033172;28;20054;-68
2022/12/01 00:08:03;;;;;;;8.98;5.65;;;21.60;54.50;;;;;;5051378;28;20040;-68
2022/12/01 00:10:31;;;;;;;11.40;6.00;;;21.70;54.70;;;;;;5051019;28;20096;-68
2022/12/01 00:13:00;;;;;;;11.75;6.07;;;21.50;54.40;;;;;;5050846;28;20033;-68
2022/12/01 00:15:28;;;;;;;7.93;6.47;;;21.50;54.50;;;;;;5050231;28;20037;-67
2022/12/01 00:17:54;;;;;;;9.43;6.13;;;21.50;54.60;;;;;;5049887;28;20047;-68
2022/12/01 00:20:20;;;;;;;10.20;6.85;;;21.60;54.50;;;;;;5050282;28;20037;-68
2022/12/01 00:22:47;;;;;;;10.00;6.28;;;21.60;54.40;;;;;;5050706;28;20040;-68
2022/12/01 00:25:16;;;;;;;9.13;6.57;;;21.60;54.30;;;;;;5015679;28;20493;-68
2022/12/01 00:27:45;;;;;;;9.30;5.68;;;21.60;54.30;;;;;;5050794;28;20106;-68
2022/12/01 00:30:12;;;;;;;9.30;6.18;;;21.50;54.30;;;;;;5050948;28;20112;-69
2022/12/01 00:32:38;;;;;;;8.88;5.75;;;21.50;54.20;;;;;;5050716;28;20040;-68
2022/12/01 00:35:05;;;;;;;10.48;6.40;;;21.60;54.10;;;;;;5050643;28;20045;-69
2022/12/01 00:37:32;;;;;;;10.93;6.38;;;21.50;54.00;;;;;;5050782;28;20036;-69
2022/12/01 00:39:58;;;;;;;10.95;6.68;;;21.50;54.00;;;;;;5050692;28;20061;-69
2022/12/01 00:42:25;;;;;;;9.70;6.47;;;21.60;53.90;;;;;;5050834;28;20025;-69
2022/12/01 00:44:51;;;;;;;8.75;6.32;;;21.50;53.90;;;;;;5050569;28;20037;-69
2022/12/01 00:47:18;;;;;;;11.50;6.45;;;21.60;53.80;;;;;;5050607;28;20028;-69
2022/12/01 00:49:45;;;;;;;9.43;6.28;;;21.60;53.70;;;;;;5066685;28;20068;-69
2022/12/01 00:52:12;;;;;;;9.20;5.93;;;21.40;53.70;;;;;;5070633;28;20047;-69
2022/12/01 00:54:38;;;;;;;16.08;7.15;;;21.40;53.70;;;;;;5070548;28;20121;-69
2022/12/01 00:57:05;;;;;;;8.32;6.18;;;21.40;53.70;;;;;;5074341;28;20040;-69
2022/12/01 00:59:31;;;;;;;10.60;6.82;;;21.40;53.80;;;;;;5074636;28;20107;-69
2022/12/01 01:01:57;;;;;;;11.82;7.47;;;21.30;53.80;;;;;;5074821;28;20119;-69
2022/12/01 01:04:23;;;;;;;9.60;6.60;;;21.20;53.70;;;;;;5074702;28;20028;-69
2022/12/01 01:06:49;;;;;;;11.15;6.53;;;21.30;54.00;;;;;;5074255;28;20040;-69
2022/12/01 01:09:15;;;;;;;13.05;6.72;;;21.30;53.70;;;;;;5074431;28;20470;-68
2022/12/01 01:11:42;;;;;;;9.55;6.15;;;21.40;53.70;;;;;;5038798;28;20046;-68
2022/12/01 01:14:09;;;;;;;10.70;6.72;;;21.30;53.70;;;;;;5074426;28;20040;-69
2022/12/01 01:16:35;;;;;;;10.40;6.20;;;21.30;53.60;;;;;;5074404;28;20071;-69
2022/12/01 01:19:01;;;;;;;8.73;6.55;;;21.30;53.60;;;;;;5074513;28;20048;-69
2022/12/01 01:21:27;;;;;;;10.30;6.53;;;21.30;53.50;;;;;;5074500;28;20085;-68
2022/12/01 01:23:54;;;;;;;9.75;6.20;;;21.20;53.50;;;;;;5074444;28;20109;-69
2022/12/01 01:26:23;;;;;;;9.93;6.38;;;21.20;53.60;;;;;;5056253;28;20036;-69
2022/12/01 01:28:50;;;;;;;9.90;6.28;;;21.30;53.70;;;;;;5066430;28;20033;-69
2022/12/01 01:31:21;;;;;;;10.38;6.47;;;21.10;53.60;;;;;;5054115;28;20052;-68
2022/12/01 01:33:49;;;;;;;10.85;6.53;;;21.20;53.50;;;;;;5001877;28;20055;-69
2022/12/01 01:36:16;;;;;;;11.07;7.28;;;21.10;53.50;;;;;;5053546;28;20036;-69
2022/12/01 01:38:42;;;;;;;14.23;7.50;;;21.10;53.40;;;;;;5053681;28;20662;-69
2022/12/01 01:41:09;;;;;;;11.65;6.57;;;21.10;53.40;;;;;;5053657;28;20044;-69
2022/12/01 01:43:56;;;;;;;13.07;7.43;;;21.10;53.40;;;;;;5053408;28;20032;-69
2022/12/01 01:46:33;;;;;;;10.05;7.07;;;21.10;53.50;;;;;;5053579;28;20044;-69
2022/12/01 01:49:06;;;;;;;9.93;7.10;;;21.20;53.40;;;;;;5053686;28;20040;-69
2022/12/01 01:51:32;;;;;;;10.98;6.70;;;21.20;53.20;;;;;;5053447;28;20044;-69
2022/12/01 01:54:05;;;;;;;11.20;7.03;;;21.10;53.10;;;;;;5053509;28;20478;-69
2022/12/01 01:56:31;;;;;;;11.65;7.30;;;21.30;53.20;;;;;;5053788;28;20037;-69
2022/12/01 01:58:58;;;;;;;11.05;6.30;;;21.20;53.10;;;;;;5053532;28;20037;-69
2022/12/01 02:01:24;;;;;;;9.95;7.22;;;21.30;53.20;;;;;;5053236;28;20029;-69
2022/12/01 02:03:53;;;;;;;11.05;6.65;;;21.20;53.00;;;;;;5053273;28;20504;-69
2022/12/01 02:06:19;;;;;;;12.40;6.45;;;21.30;53.00;;;;;;5035265;28;20120;-70
2022/12/01 02:08:45;;;;;;;13.63;7.55;;;21.50;53.00;;;;;;5052662;28;20041;-69
2022/12/01 02:11:47;;;;;;;10.63;6.63;;;21.30;52.80;;;;;;5052987;28;20048;-69
2022/12/01 02:14:31;;;;;;;12.02;7.57;;;21.40;52.70;;;;;;5052809;28;20033;-68
2022/12/01 02:17:11;;;;;;;9.55;6.55;;;21.40;52.70;;;;;;5052792;28;20044;-69
2022/12/01 02:20:07;;;;;;;9.57;7.43;;;21.50;52.70;;;;;;5053044;28;20044;-69
2022/12/01 02:22:39;;;;;;;11.85;7.15;;;21.50;52.60;;;;;;5035363;28;20036;-69
2022/12/01 02:25:14;;;;;;;13.70;7.43;;;21.40;52.50;;;;;;5035315;28;20379;-69
2022/12/01 02:27:58;;;;;;;10.30;7.30;;;21.50;52.60;;;;;;5052861;28;20051;-69
2022/12/01 02:30:42;;;;;;;13.30;7.18;;;21.60;52.20;;;;;;5053262;28;20037;-69
2022/12/01 02:33:14;;;;;;;9.55;7.35;;;21.60;52.20;;;;;;5053208;28;20055;-69
2022/12/01 02:36:01;;;;;;;15.77;7.13;;;21.50;52.20;;;;;;5053076;28;20041;-69
2022/12/01 02:38:32;;;;;;;11.00;7.15;;;21.60;52.20;;;;;;5052808;28;20025;-69
2022/12/01 02:41:23;;;;;;;9.43;5.93;;;21.60;52.20;;;;;;5052857;28;20047;-69
2022/12/01 02:44:06;;;;;;;9.93;6.88;;;21.60;52.10;;;;;;5052838;28;20037;-69
2022/12/01 02:46:32;;;;;;;10.73;6.93;;;21.60;52.20;;;;;;5052841;28;20133;-69
2022/12/01 02:49:07;;;;;;;9.98;7.07;;;21.60;52.10;;;;;;5055344;28;20118;-69
2022/12/01 02:51:35;;;;;;;9.48;6.65;;;21.60;52.00;;;;;;5052928;28;20094;-69
2022/12/01 02:54:04;;;;;;;12.40;6.72;;;21.70;52.00;;;;;;5052510;28;20076;-69
2022/12/01 02:56:30;;;;;;;9.93;7.47;;;21.60;52.00;;;;;;5035034;28;20063;-69
2022/12/01 02:58:56;;;;;;;10.48;5.88;;;21.60;51.90;;;;;;5052543;28;20037;-69
2022/12/01 03:01:37;;;;;;;11.15;6.25;;;21.60;52.00;;;;;;5052831;28;20083;-69
2022/12/01 03:04:17;;;;;;;12.40;6.90;;;21.60;51.80;;;;;;5052431;28;20532;-69
2022/12/01 03:07:03;;;;;;;9.48;6.22;;;21.50;51.80;;;;;;5052557;28;20124;-69
2022/12/01 03:09:48;;;;;;;9.27;6.47;;;21.70;51.90;;;;;;5052460;28;20059;-69
2022/12/01 03:12:29;;;;;;;10.20;5.82;;;21.50;51.90;;;;;;5052472;28;20095;-69
2022/12/01 03:15:06;;;;;;;9.95;7.18;;;21.40;51.90;;;;;;5052250;28;20039;-69
2022/12/01 03:17:59;;;;;;;13.55;7.60;;;21.60;51.80;;;;;;5051723;28;20471;-70
2022/12/01 03:20:42;;;;;;;13.47;7.07;;;21.60;51.80;;;;;;5051954;28;20041;-68
2022/12/01 03:23:13;;;;;;;11.07;7.15;;;21.50;52.00;;;;;;5052196;28;20332;-70
2022/12/01 03:25:44;;;;;;;11.32;7.72;;;21.50;52.00;;;;;;5059064;28;20586;-69
2022/12/01 03:28:13;;;;;;;12.35;7.38;;;21.40;51.90;;;;;;5070777;28;20032;-69
2022/12/01 03:30:42;;;;;;;10.98;7.40;;;21.50;51.80;;;;;;5053015;28;20032;-69
2022/12/01 03:33:13;;;;;;;13.65;7.47;;;21.50;51.80;;;;;;5071197;28;20043;-69
2022/12/01 03:35:54;;;;;;;10.68;7.35;;;21.50;51.80;;;;;;5071567;28;20043;-69
2022/12/01 03:38:25;;;;;;;13.82;7.07;;;21.60;51.70;;;;;;5071494;28;20036;-69
2022/12/01 03:41:00;;;;;;;14.32;7.90;;;21.70;51.80;;;;;;5071694;28;20044;-69
2022/12/01 03:43:39;;;;;;;9.95;7.32;;;21.50;51.60;;;;;;5036164;28;20135;-69
2022/12/01 03:46:31;;;;;;;12.98;8.35;;;21.50;51.60;;;;;;5071317;28;20044;-69
2022/12/01 03:48:58;;;;;;;11.70;7.30;;;21.50;51.50;;;;;;5071602;28;20375;-69
2022/12/01 03:51:34;;;;;;;11.88;7.30;;;21.60;51.50;;;;;;5071451;28;20028;-69
2022/12/01 03:54:06;;;;;;;14.20;7.28;;;21.50;51.60;;;;;;5071586;28;20037;-68
2022/12/01 03:56:38;;;;;;;12.35;8.40;;;21.40;51.50;;;;;;5071189;28;20028;-69
2022/12/01 03:59:06;;;;;;;12.30;7.85;;;21.40;51.50;;;;;;5071281;28;20037;-69
2022/12/01 04:01:33;;;;;;;12.48;6.35;;;21.30;51.60;;;;;;5071262;28;20033;-69
2022/12/01 04:04:13;;;;;;;10.93;6.90;;;21.40;51.70;;;;;;5071320;28;20466;-69
2022/12/01 04:06:45;;;;;;;12.55;6.65;;;21.40;51.50;;;;;;5071261;28;20047;-68
2022/12/01 04:09:11;;;;;;;11.70;7.85;;;21.50;51.50;;;;;;5070727;28;20076;-68
2022/12/01 04:14:21;;;;;;;13.75;6.90;;;21.40;51.30;;;;;;5053127;28;20403;-68
2022/12/01 04:16:48;;;;;;;11.02;7.10;;;21.40;51.30;;;;;;5071384;28;20030;-68
2022/12/01 04:19:14;;;;;;;15.20;7.35;;;21.50;51.60;;;;;;5071062;28;20052;-69
2022/12/01 04:21:40;;;;;;;11.70;6.38;;;21.50;51.40;;;;;;5053222;28;20437;-69
2022/12/01 04:24:06;;;;;;;11.07;6.95;;;21.40;51.40;;;;;;5071183;28;20043;-68
2022/12/01 04:26:34;;;;;;;12.70;7.63;;;21.50;51.50;;;;;;5071065;28;20039;-69
2022/12/01 04:29:03;;;;;;;14.18;7.13;;;21.30;51.30;;;;;;5035320;28;20068;-69
2022/12/01 04:31:29;;;;;;;13.65;7.18;;;21.50;51.30;;;;;;5071321;28;20051;-68
2022/12/01 04:33:57;;;;;;;14.82;7.30;;;21.30;51.20;;;;;;5070831;28;20045;-68
2022/12/01 04:36:24;;;;;;;12.80;7.75;;;21.50;51.30;;;;;;5071145;28;20036;-68
2022/12/01 04:38:50;;;;;;;14.32;7.75;;;21.40;51.20;;;;;;5034886;28;20076;-69
2022/12/01 04:41:17;;;;;;;11.38;6.57;;;21.40;51.40;;;;;;5070905;28;20450;-69
2022/12/01 04:43:43;;;;;;;11.70;5.72;;;21.40;51.20;;;;;;5071010;28;20032;-69
2022/12/01 04:46:09;;;;;;;12.35;7.63;;;21.40;51.10;;;;;;5071114;28;20127;-69
2022/12/01 04:48:37;;;;;;;9.00;5.88;;;21.40;51.10;;;;;;5067302;28;20016;-69
2022/12/01 04:51:04;;;;;;;10.57;6.32;;;21.50;51.30;;;;;;5070859;28;20119;-68
2022/12/01 04:53:31;;;;;;;9.65;6.25;;;21.60;50.70;;;;;;5070803;28;20103;-69
2022/12/01 04:55:59;;;;;;;9.80;5.63;;;21.80;50.30;;;;;;5070566;28;20439;-69
2022/12/01 04:58:26;;;;;;;11.10;5.97;;;22.00;49.90;;;;;;5052687;28;20086;-68
2022/12/01 05:00:52;;;;;;;11.20;6.85;;;22.10;49.80;;;;;;5070689;28;20051;-68
2022/12/01 05:03:18;;;;;;;12.80;8.02;;;22.10;49.70;;;;;;5070644;28;20029;-69
2022/12/01 05:05:44;;;;;;;14.93;8.27;;;22.20;49.60;;;;;;5070554;28;20041;-70
2022/12/01 05:08:10;;;;;;;13.32;7.75;;;22.30;49.80;;;;;;5070574;28;20094;-71
2022/12/01 05:10:37;;;;;;;13.57;7.53;;;22.10;50.90;;;;;;5070249;28;20404;-70
2022/12/01 05:13:04;;;;;;;12.35;7.65;;;21.90;52.40;;;;;;5070652;28;20033;-73
2022/12/01 05:15:31;;;;;;;14.48;7.82;;;21.70;52.90;;;;;;5070488;28;20110;-69
2022/12/01 05:17:57;;;;;;;13.02;7.45;;;22.10;57.30;;;;;;5034947;28;20094;-69
2022/12/01 05:23:09;;;;;;;10.02;6.53;;;22.90;60.10;;;;;;5070470;28;20086;-76
2022/12/01 05:25:36;;;;;;;10.98;6.60;;;22.90;55.80;;;;;;5070330;28;20481;-75
2022/12/01 05:28:03;;;;;;;12.38;8.18;;;22.90;53.10;;;;;;5064121;28;20033;-74
2022/12/01 05:30:29;;;;;;;13.30;8.23;;;22.90;50.90;;;;;;5014801;28;20052;-72
2022/12/01 05:32:55;;;;;;;17.40;8.50;;;22.60;49.90;;;;;;5050239;28;20029;-71
2022/12/01 05:35:21;;;;;;;12.82;8.23;;;22.40;49.60;;;;;;5050448;28;20044;-71
2022/12/01 05:37:47;;;;;;;10.38;7.15;;;22.30;50.80;;;;;;5050408;28;20021;-72
2022/12/01 05:40:13;;;;;;;11.00;6.65;;;22.10;51.40;;;;;;5050564;28;20166;-71
2022/12/01 05:42:39;;;;;;;8.82;6.43;;;22.00;51.60;;;;;;5053303;28;20056;-70
2022/12/01 05:45:06;;;;;;;16.75;7.28;;;22.20;52.00;;;;;;5002600;28;20056;-74
2022/12/01 05:47:32;;;;;;;13.80;7.90;;;22.20;52.00;;;;;;5053968;28;20040;-70
2022/12/01 05:49:57;;;;;;;8.85;6.45;;;22.10;52.00;;;;;;5054051;28;20021;-71
2022/12/01 05:52:23;;;;;;;10.35;7.03;;;22.20;52.60;;;;;;5054013;28;20071;-70
2022/12/01 05:54:49;;;;;;;11.52;7.43;;;22.00;52.90;;;;;;5053871;28;20037;-69
2022/12/01 05:57:15;;;;;;;10.48;6.03;;;22.20;53.30;;;;;;5053859;28;20039;-70
2022/12/01 05:59:41;;;;;;;8.43;6.30;;;22.00;53.50;;;;;;5053673;28;20036;-70
2022/12/01 06:02:07;;;;;;;19.63;7.32;;;22.10;53.20;;;;;;5053945;28;20052;-74
2022/12/01 06:04:33;;;;;;;12.48;6.95;;;22.40;52.40;;;;;;5053533;28;20743;-69
2022/12/01 06:06:59;;;;;;;8.25;6.55;;;22.20;47.40;;;;;;5053559;28;20124;-70
2022/12/01 06:09:25;;;;;;;11.15;7.40;;;22.10;45.50;;;;;;5053413;28;20132;-69
2022/12/01 06:11:51;;;;;;;11.68;6.75;;;22.10;44.70;;;;;;5002106;28;20048;-70
2022/12/01 06:14:17;;;;;;;7.22;5.65;;;22.30;43.40;;;;;;5053561;28;20049;-69
2022/12/01 06:16:43;;;;;;;10.50;6.43;;;22.20;42.50;;;;;;5053443;28;20032;-70
2022/12/01 06:19:09;;;;;;;10.23;6.47;;;22.20;43.00;;;;;;5053327;28;20033;-70
2022/12/01 06:21:35;;;;;;;13.25;7.53;;;22.20;42.70;;;;;;5053503;28;20120;-70
2022/12/01 06:24:01;;;;;;;14.30;8.30;;;22.20;42.90;;;;;;5053358;28;20108;-71
2022/12/01 06:26:27;;;;;;;12.55;8.98;;;22.10;42.70;;;;;;5053150;28;20031;-71
2022/12/01 06:28:53;;;;;;;13.85;9.15;;;22.10;42.70;;;;;;5053162;28;20064;-72
2022/12/01 06:31:19;;;;;;;11.10;6.78;;;22.10;42.50;;;;;;5053174;28;20086;-72
2022/12/01 06:33:44;;;;;;;10.90;6.50;;;22.10;42.00;;;;;;5034882;28;20045;-71
2022/12/01 06:36:10;;;;;;;7.35;5.80;;;22.10;40.00;;;;;;5052847;28;20033;-72
2022/12/01 06:38:36;;;;;;;13.10;8.23;;;22.00;42.40;;;;;;5053082;28;20035;-70
2022/12/01 06:41:04;;;;;;;14.10;9.00;;;22.00;42.30;;;;;;5051935;28;20486;-73
2022/12/01 06:43:30;;;;;;;10.45;7.88;;;21.90;42.40;;;;;;5033867;28;20090;-71
2022/12/01 06:45:56;;;;;;;10.75;7.70;;;21.90;42.60;;;;;;5054401;28;20033;-71
2022/12/01 06:48:22;;;;;;;13.70;8.68;;;22.00;54.60;;;;;;5052463;28;20037;-72
2022/12/01 06:50:48;;;;;;;14.57;8.38;;;22.10;56.50;;;;;;5052942;28;20025;-69
2022/12/01 06:53:14;;;;;;;15.20;8.73;;;22.30;56.90;;;;;;5033978;28;20378;-70
2022/12/01 06:55:40;;;;;;;15.13;8.45;;;22.30;56.80;;;;;;5052784;28;20537;-72
2022/12/01 06:58:06;;;;;;;12.73;7.85;;;22.20;57.60;;;;;;5035037;28;20037;-70
2022/12/01 07:00:32;;;;;;;12.57;8.88;;;22.20;58.20;;;;;;5052438;28;20092;-69
2022/12/01 07:02:58;;;;;;;11.50;7.82;;;22.30;57.30;;;;;;5052730;28;20701;-70
2022/12/01 07:05:25;;;;;;;13.82;8.30;;;22.20;57.40;;;;;;5052599;28;20076;-71
2022/12/01 07:07:51;;;;;;;12.70;7.65;;;21.90;58.20;;;;;;5052699;28;20458;-70
2022/12/01 07:10:16;;;;;;;10.52;6.70;;;22.00;58.30;;;;;;5059232;28;20098;-69
2022/12/01 07:12:42;;;;;;;14.10;7.05;;;21.90;58.70;;;;;;5072496;28;20082;-70
2022/12/01 07:15:10;;;;;;;14.77;6.95;;;22.00;58.50;;;;;;5069779;28;20064;-69
2022/12/01 07:17:36;;;;;;;10.20;6.22;;;21.90;58.70;;;;;;5072358;28;20120;-70
2022/12/01 07:20:03;;;;;;;9.68;6.25;;;21.80;58.40;;;;;;5072469;28;20047;-73
2022/12/01 07:22:28;;;;;;;9.80;6.57;;;21.80;58.40;;;;;;5072036;28;20562;-70
2022/12/01 07:24:54;;;;;;;10.80;7.40;;;21.90;58.40;;;;;;5072214;28;20040;-71
2022/12/01 07:27:20;;;;;;;12.27;6.15;;;21.80;58.20;;;;;;5091157;28;20032;-73
2022/12/01 07:29:46;;;;;;;10.32;7.03;;;21.90;58.30;;;;;;5092345;28;20137;-72
2022/12/01 07:32:12;;;;;;;12.35;7.22;;;21.80;58.10;;;;;;5092080;28;20131;-70
2022/12/01 07:34:38;;;;;;;10.90;6.70;;;21.80;57.80;;;;;;5075792;28;20127;-72
2022/12/01 07:37:05;;;;;;;9.65;6.60;;;21.70;57.50;;;;;;5071991;28;20367;-71
2022/12/01 07:39:30;;;;;;;9.95;6.88;;;21.70;57.40;;;;;;5071835;28;20074;-68
2022/12/01 07:41:56;;;;;;;13.10;6.28;;;21.80;57.50;;;;;;5071964;28;20370;-67
2022/12/01 07:44:22;;;;;;;15.05;6.50;;;21.80;57.50;;;;;;5071738;28;20105;-71
2022/12/01 07:46:49;;;;;;;8.50;6.05;;;21.70;57.70;;;;;;5070609;28;20024;-73
2022/12/01 07:49:15;;;;;;;10.63;6.57;;;21.70;57.90;;;;;;5071872;28;20108;-73
2022/12/01 07:51:41;;;;;;;9.45;5.97;;;21.60;57.50;;;;;;5071590;28;20108;-73
2022/12/01 07:54:07;;;;;;;8.77;6.53;;;21.60;57.60;;;;;;5071374;28;20477;-73
2022/12/01 07:56:33;;;;;;;12.32;6.93;;;21.70;57.80;;;;;;5071627;28;20036;-70
2022/12/01 07:58:59;;;;;;;13.48;7.03;;;21.60;57.50;;;;;;5071438;28;20074;-69
2022/12/01 08:01:25;;;;;;;10.18;6.18;;;21.60;57.40;;;;;;5071557;28;20086;-70
2022/12/01 08:03:54;;;;;;;14.32;7.43;;;21.60;58.90;;;;;;5071296;28;20030;-71
2022/12/01 08:06:21;;;;;;;13.35;8.27;;;21.50;58.00;;;;;;5071424;28;20124;-70
2022/12/01 08:08:47;;;;;;;14.82;8.40;;;21.60;58.00;;;;;;5069656;28;20082;-71
2022/12/01 08:11:25;;;;;;;10.13;6.75;;;21.40;58.80;;;;;;5051249;28;20401;-70
2022/12/01 08:13:52;;;;;;;15.18;7.78;;;21.40;59.10;;;;;;5051373;28;20151;-70
2022/12/01 08:16:19;;;;;;;9.07;6.60;;;21.40;59.40;;;;;;5051355;28;20040;-68
2022/12/01 08:18:45;;;;;;;9.32;5.50;;;21.40;60.00;;;;;;5015905;28;20132;-68
2022/12/01 08:21:14;;;;;;;8.07;5.47;;;21.60;58.60;;;;;;5051120;28;20040;-68
2022/12/01 08:23:41;;;;;;;8.30;6.28;;;21.90;56.80;;;;;;5051215;28;20040;-67
2022/12/01 08:26:12;;;;;;;13.88;7.25;;;22.00;54.60;;;;;;5051041;28;20357;-68
2022/12/01 08:28:39;;;;;;;12.73;6.85;;;22.10;52.90;;;;;;5051321;28;20021;-68
2022/12/01 08:31:15;;;;;;;6.82;5.10;;;22.10;51.30;;;;;;5050949;28;20425;-68
2022/12/01 08:33:41;;;;;;;9.38;7.00;;;22.30;50.20;;;;;;5051204;28;20029;-69
2022/12/01 08:36:07;;;;;;;9.25;6.32;;;22.20;49.00;;;;;;5033190;28;20029;-70
2022/12/01 08:38:33;;;;;;;10.18;5.95;;;22.40;48.00;;;;;;5051086;28;20032;-71
2022/12/01 08:41:05;;;;;;;8.63;5.80;;;22.50;47.80;;;;;;5050624;28;20549;-71
2022/12/01 08:43:32;;;;;;;8.98;5.35;;;22.50;47.70;;;;;;5051402;28;20490;-71
2022/12/01 08:45:59;;;;;;;9.30;6.45;;;22.60;47.80;;;;;;5053257;28;20086;-72
2022/12/01 08:48:28;;;;;;;6.95;5.18;;;22.60;47.90;;;;;;5051079;28;20032;-70
2022/12/01 08:51:09;;;;;;;10.05;6.78;;;22.70;48.40;;;;;;5050857;28;20484;-74
2022/12/01 08:53:37;;;;;;;11.45;6.05;;;22.70;48.60;;;;;;5050927;28;20041;-70
2022/12/01 08:56:10;;;;;;;12.45;7.70;;;22.50;49.00;;;;;;5051025;28;20041;-69
2022/12/01 08:58:36;;;;;;;8.95;6.53;;;22.40;49.70;;;;;;5050563;28;20036;-70
2022/12/01 09:01:12;;;;;;;9.18;6.80;;;22.20;50.70;;;;;;5050742;28;20021;-69
2022/12/01 09:03:38;;;;;;;11.20;6.50;;;22.10;52.60;;;;;;5050577;28;20041;-68
2022/12/01 09:06:08;;;;;;;10.00;6.40;;;22.30;44.40;;;;;;5050492;28;20021;-68
2022/12/01 09:08:35;;;;;;;8.75;6.18;;;22.60;40.80;;;;;;5050557;28;20052;-67
2022/12/01 09:11:04;;;;;;;8.70;5.10;;;22.80;40.60;;;;;;5070512;28;20055;-67
2022/12/01 09:13:33;;;;;;;10.75;7.25;;;23.00;44.20;;;;;;5034808;28;20036;-67
2022/12/01 09:16:11;;;;;;;9.43;6.63;;;23.00;54.90;;;;;;5070819;28;20039;-68
2022/12/01 09:18:38;;;;;;;11.35;8.13;;;23.10;52.50;;;;;;5074533;28;20064;-68
2022/12/01 09:21:25;;;;;;;13.35;8.57;;;22.80;53.00;;;;;;5074339;28;20434;-68
2022/12/01 09:23:52;;;;;;;11.55;7.05;;;22.70;53.70;;;;;;5074364;28;20111;-67
2022/12/01 09:26:19;;;;;;;12.05;7.57;;;22.60;54.50;;;;;;5074052;28;20377;-70
2022/12/01 09:28:46;;;;;;;8.90;6.97;;;22.50;55.30;;;;;;5073526;28;20055;-70
2022/12/01 09:31:14;;;;;;;18.25;8.77;;;22.40;56.30;;;;;;5021232;28;20060;-67
2022/12/01 09:33:40;;;;;;;14.27;8.30;;;22.30;57.80;;;;;;5073414;28;20554;-70
2022/12/01 09:36:07;;;;;;;9.68;7.82;;;22.20;58.20;;;;;;5073869;28;20037;-68
2022/12/01 09:38:35;;;;;;;13.35;7.85;;;22.10;58.30;;;;;;5054298;28;20039;-70
2022/12/01 09:41:33;;;;;;;13.93;8.45;;;22.00;57.80;;;;;;5036021;28;20032;-69
2022/12/01 09:44:16;;;;;;;15.23;7.63;;;22.00;58.50;;;;;;4991963;28;20038;-69
2022/12/01 09:46:48;;;;;;;13.00;7.25;;;22.00;59.20;;;;;;4991876;28;20498;-69
2022/12/01 09:49:53;;;;;;;12.85;8.40;;;21.90;60.00;;;;;;4991743;28;20564;-69
2022/12/01 09:52:20;;;;;;;10.10;7.18;;;21.90;60.20;;;;;;4991648;28;20042;-69
2022/12/01 09:54:46;;;;;;;11.35;7.03;;;22.10;60.10;;;;;;4991249;28;20505;-70
2022/12/01 09:57:39;;;;;;;13.38;8.35;;;22.00;60.20;;;;;;4990620;28;20460;-68
2022/12/01 10:00:18;;;;;;;12.70;7.90;;;21.90;60.10;;;;;;4990547;28;20042;-70
2022/12/01 10:03:17;;;;;;;11.40;8.90;;;22.00;57.80;;;;;;4990447;28;20074;-68
2022/12/01 10:06:08;;;;;;;12.32;7.97;;;22.30;46.60;;;;;;4913607;29;20071;-68
2022/12/01 10:08:40;;;;;;;90.03;40.40;;;22.80;53.00;;;;;;4897738;29;20052;-66
2022/12/01 10:11:38;;;;;;;12.68;8.25;;;23.10;54.90;;;;;;4932783;29;20055;-69
2022/12/01 10:14:12;;;;;;;16.30;9.35;;;23.40;55.10;;;;;;4912439;29;20052;-70
2022/12/01 10:16:47;;;;;;;17.67;10.25;;;23.60;55.20;;;;;;4913725;29;20044;-69
2022/12/01 10:19:42;;;;;;;14.00;7.45;;;23.70;55.00;;;;;;4921234;29;20102;-71
2022/12/01 10:22:30;;;;;;;14.63;8.05;;;23.60;54.90;;;;;;4871394;29;20036;-72
2022/12/01 10:25:27;;;;;;;12.48;9.18;;;23.50;55.00;;;;;;4876646;29;20097;-70
2022/12/01 10:28:22;;;;;;;11.45;8.38;;;23.30;55.70;;;;;;4876810;29;20051;-77
2022/12/01 10:30:50;;;;;;;15.98;10.07;;;23.30;55.80;;;;;;4903858;29;20044;-69
2022/12/01 10:33:24;;;;;;;12.95;8.07;;;23.20;56.50;;;;;;4914309;29;20043;-73
2022/12/01 10:35:50;;;;;;;15.05;9.35;;;23.00;56.40;;;;;;4883252;29;20056;-70
2022/12/01 10:38:31;;;;;;;13.63;7.95;;;23.00;58.60;;;;;;4914344;29;20123;-65
2022/12/01 10:41:00;;;;;;;11.80;7.70;;;22.90;58.20;;;;;;4914010;29;20091;-68
2022/12/01 10:43:39;;;;;;;8.95;7.32;;;22.70;58.40;;;;;;4954972;28;20084;-69
2022/12/01 10:46:20;;;;;;;13.73;8.18;;;22.70;58.60;;;;;;5032569;28;20403;-68
2022/12/01 10:48:58;;;;;;;11.20;8.10;;;22.60;58.60;;;;;;5066612;28;20503;-69
2022/12/01 10:51:26;;;;;;;13.95;8.05;;;22.60;58.90;;;;;;5065117;28;20098;-69
2022/12/01 10:54:19;;;;;;;13.82;10.02;;;22.40;59.60;;;;;;5061508;28;20033;-72
2022/12/01 10:56:47;;;;;;;12.93;9.68;;;22.60;44.70;;;;;;4971016;28;20050;-71
2022/12/01 10:59:42;;;;;;;11.32;7.18;;;23.00;52.50;;;;;;4971163;28;20050;-70
2022/12/01 11:02:18;;;;;;;14.85;8.55;;;23.40;49.10;;;;;;4970940;28;20051;-67
2022/12/01 11:04:53;;;;;;;19.38;8.75;;;23.80;47.30;;;;;;4970676;28;20050;-67
2022/12/01 11:07:30;;;;;;;14.82;8.65;;;23.90;48.10;;;;;;4970651;28;20087;-68
2022/12/01 11:10:24;;;;;;;14.40;8.50;;;24.00;44.50;;;;;;4982221;28;20076;-69
2022/12/01 11:13:23;;;;;;;10.75;7.63;;;24.20;45.80;;;;;;5009463;28;20042;-68
2022/12/01 11:15:55;;;;;;;10.75;7.55;;;24.20;42.90;;;;;;4970705;28;20057;-69
2022/12/01 11:18:23;;;;;;;11.45;7.43;;;24.10;40.40;;;;;;4970647;28;20047;-72
2022/12/01 11:21:03;;;;;;;12.15;7.47;;;24.10;42.70;;;;;;4970794;28;20051;-70
2022/12/01 11:23:30;;;;;;;10.02;8.02;;;24.10;41.30;;;;;;4970945;28;20078;-68
2022/12/01 11:26:19;;;;;;;10.73;7.75;;;24.10;41.90;;;;;;4970667;28;20118;-67
2022/12/01 11:29:04;;;;;;;10.32;7.40;;;24.10;41.40;;;;;;4954507;28;20591;-68
2022/12/01 11:31:43;;;;;;;14.45;8.50;;;24.10;38.50;;;;;;4970383;28;20042;-69
2022/12/01 11:34:22;;;;;;;14.32;9.55;;;24.20;51.60;;;;;;5013891;28;22051;-70
2022/12/01 11:36:53;;;;;;;15.98;9.48;;;24.20;53.40;;;;;;5029341;28;20077;-69
2022/12/01 11:39:34;;;;;;;16.08;8.60;;;24.10;53.90;;;;;;5028850;28;20045;-69
2022/12/01 11:42:14;;;;;;;9.90;8.13;;;24.00;54.20;;;;;;5029061;28;20052;-70
2022/12/01 11:44:49;;;;;;;14.52;10.15;;;23.90;54.60;;;;;;5028961;28;20042;-70
2022/12/01 11:47:17;;;;;;;17.55;9.30;;;23.80;55.20;;;;;;5012563;28;20048;-71
2022/12/01 11:49:50;;;;;;;16.23;9.45;;;23.60;55.90;;;;;;5039603;28;20029;-71
2022/12/01 11:52:32;;;;;;;14.45;9.52;;;23.60;56.20;;;;;;5063146;28;20055;-71
2022/12/01 11:55:17;;;;;;;13.63;8.98;;;23.40;56.10;;;;;;5091765;28;20097;-71
2022/12/01 11:57:47;;;;;;;17.60;10.48;;;23.30;56.40;;;;;;5091816;28;20119;-69
2022/12/01 12:00:15;;;;;;;17.88;10.55;;;23.30;56.80;;;;;;5091475;28;20043;-70
2022/12/01 12:03:08;;;;;;;16.90;10.65;;;23.20;57.00;;;;;;5091473;28;20036;-70
2022/12/01 12:05:52;;;;;;;19.30;10.02;;;23.00;57.50;;;;;;5088196;28;20028;-71
2022/12/01 12:08:27;;;;;;;16.02;9.23;;;23.00;57.80;;;;;;5060221;28;20079;-69
2022/12/01 12:11:23;;;;;;;16.85;8.98;;;22.90;58.20;;;;;;5060893;28;20053;-71
2022/12/01 12:14:25;;;;;;;14.57;8.60;;;23.00;58.80;;;;;;5050727;28;20421;-71
2022/12/01 12:17:15;;;;;;;12.45;7.90;;;22.80;58.90;;;;;;5065105;28;20550;-70
2022/12/01 12:20:17;;;;;;;10.68;7.88;;;22.70;59.20;;;;;;5071168;28;20107;-72
2022/12/01 12:23:12;;;;;;;15.52;8.70;;;22.60;59.60;;;;;;5055757;28;20106;-70
2022/12/01 12:26:02;;;;;;;10.25;7.80;;;22.70;59.60;;;;;;4950490;28;20166;-69
2022/12/01 12:28:59;;;;;;;12.43;8.23;;;22.60;59.30;;;;;;4950582;29;20130;-72
2022/12/01 12:31:51;;;;;;;10.80;7.03;;;22.70;59.30;;;;;;4950801;29;20050;-73
2022/12/01 12:34:47;;;;;;;10.32;6.35;;;22.60;59.10;;;;;;4950535;29;20059;-74
2022/12/01 12:37:16;;;;;;;15.38;6.88;;;22.60;61.50;;;;;;4950454;29;20047;-73
2022/12/01 12:39:57;;;;;;;10.50;7.63;;;22.70;63.20;;;;;;4950498;29;20031;-73
2022/12/01 12:42:38;;;;;;;12.55;6.50;;;22.70;62.30;;;;;;4950239;29;20054;-73
2022/12/01 12:45:22;;;;;;;13.30;6.45;;;22.70;61.40;;;;;;4967351;28;20070;-72
2022/12/01 12:48:10;;;;;;;18.55;8.32;;;22.60;61.00;;;;;;4936347;28;20041;-70
2022/12/01 12:50:58;;;;;;;10.23;6.90;;;22.60;60.80;;;;;;4961705;28;20564;-70
2022/12/01 12:53:32;;;;;;;11.20;7.65;;;22.60;60.40;;;;;;4969428;28;20085;-71
2022/12/01 12:55:58;;;;;;;;;;;22.50;60.30;;;;;;4959056;28;20489;-72
2022/12/01 12:58:33;;;;;;;11.40;7.78;;;22.50;60.40;;;;;;4950172;28;19910;-72
2022/12/01 13:01:38;;;;;;;14.35;7.28;;;22.40;60.20;;;;;;4950010;28;20082;-72
2022/12/01 13:04:12;;;;;;;13.82;7.15;;;22.40;60.20;;;;;;5007285;28;20174;-72
2022/12/01 13:06:46;;;;;;;11.45;8.23;;;22.40;60.10;;;;;;5007523;28;20034;-73
2022/12/01 13:09:18;;;;;;;11.25;7.72;;;22.20;59.70;;;;;;5011984;28;20056;-73